createdAt,value
2023-02-02T00:00:24.430Z,32.15
2023-02-02T00:01:27.744Z,38.88
2023-02-02T00:02:30.192Z,37.10
2023-02-02T00:03:32.467Z,22.75
2023-02-02T00:04:36.561Z,15.88
2023-02-02T00:05:38.849Z,16.80
2023-02-02T00:06:41.123Z,11.90
2023-02-02T00:07:43.382Z,9.43
2023-02-02T00:08:46.214Z,12.00
2023-02-02T00:09:48.593Z,11.57
2023-02-02T00:10:51.094Z,15.20
2023-02-02T00:11:53.523Z,11.57
2023-02-02T00:12:57.918Z,5.70
2023-02-02T00:14:00.963Z,8.25
2023-02-02T00:15:03.634Z,10.88
2023-02-02T00:16:31.085Z,7.70
2023-02-02T00:17:33.450Z,8.93
2023-02-02T00:18:35.752Z,9.95
2023-02-02T00:19:37.973Z,8.20
2023-02-02T00:20:40.285Z,51.28
2023-02-02T00:21:43.849Z,176.38
2023-02-02T00:22:46.122Z,65.78
2023-02-02T00:23:48.788Z,29.40
2023-02-02T00:24:51.148Z,21.23
2023-02-02T00:25:53.463Z,24.13
2023-02-02T00:26:58.305Z,26.77
2023-02-02T00:28:00.586Z,24.45
2023-02-02T00:29:03.944Z,18.95
2023-02-02T00:30:07.637Z,20.30
2023-02-02T00:31:10.343Z,19.23
2023-02-02T00:32:12.613Z,13.65
2023-02-02T00:33:14.934Z,14.80
2023-02-02T00:34:17.507Z,15.60
2023-02-02T00:35:22.733Z,14.23
2023-02-02T00:36:25.885Z,17.75
2023-02-02T00:37:28.168Z,15.18
2023-02-02T00:38:31.312Z,14.32
2023-02-02T00:39:34.333Z,15.18
2023-02-02T00:40:36.596Z,14.48
2023-02-02T00:41:39.332Z,10.63
2023-02-02T00:42:43.195Z,11.75
2023-02-02T00:44:05.847Z,12.85
2023-02-02T00:45:15.952Z,9.82
2023-02-02T00:46:18.939Z,6.70
2023-02-02T00:47:22.389Z,12.90
2023-02-02T00:48:25.881Z,9.50
2023-02-02T00:49:28.195Z,8.98
2023-02-02T00:50:30.753Z,6.25
2023-02-02T00:51:33.276Z,9.07
2023-02-02T00:52:35.535Z,8.23
2023-02-02T00:53:37.842Z,9.10
2023-02-02T00:54:40.400Z,11.50
2023-02-02T00:55:42.633Z,143.20
2023-02-02T00:56:44.948Z,128.25
2023-02-02T00:57:47.766Z,64.50
2023-02-02T00:58:50.021Z,224.65
2023-02-02T00:59:52.514Z,113.93
2023-02-02T01:00:54.862Z,70.05
2023-02-02T01:01:57.431Z,45.08
2023-02-02T01:03:04.318Z,38.10
2023-02-02T01:04:06.931Z,35.42
2023-02-02T01:05:11.188Z,30.88
2023-02-02T01:06:13.818Z,28.23
2023-02-02T01:07:16.186Z,25.40
2023-02-02T01:08:18.666Z,34.22
2023-02-02T01:09:21.431Z,20.90
2023-02-02T01:10:23.725Z,25.45
2023-02-02T01:11:26.097Z,22.00
2023-02-02T01:12:29.039Z,21.52
2023-02-02T01:13:31.409Z,16.80
2023-02-02T01:14:33.715Z,27.15
2023-02-02T01:15:37.157Z,18.38
2023-02-02T01:16:40.076Z,14.73
2023-02-02T01:17:42.729Z,15.52
2023-02-02T01:18:45.100Z,16.13
2023-02-02T01:19:47.531Z,13.73
2023-02-02T01:20:57.984Z,14.98
2023-02-02T01:22:01.821Z,35.93
2023-02-02T01:23:05.075Z,62.95
2023-02-02T01:24:08.179Z,69.72
2023-02-02T01:25:10.866Z,64.75
2023-02-02T01:26:13.932Z,45.83
2023-02-02T01:27:16.369Z,50.50
2023-02-02T01:28:18.649Z,42.30
2023-02-02T01:29:20.997Z,44.83
2023-02-02T01:30:23.608Z,42.60
2023-02-02T01:31:26.009Z,29.05
2023-02-02T01:32:28.302Z,28.60
2023-02-02T01:33:30.589Z,23.27
2023-02-02T01:34:32.922Z,22.65
2023-02-02T01:35:35.148Z,18.85
2023-02-02T01:36:37.456Z,19.23
2023-02-02T01:37:39.786Z,20.45
2023-02-02T01:38:42.700Z,17.90
2023-02-02T01:39:45.014Z,20.27
2023-02-02T01:40:56.784Z,18.83
2023-02-02T01:41:59.516Z,23.90
2023-02-02T01:43:01.916Z,16.15
2023-02-02T01:44:06.537Z,14.75
2023-02-02T01:45:29.923Z,14.77
2023-02-02T01:46:36.790Z,20.63
2023-02-02T01:47:47.833Z,13.98
2023-02-02T01:48:59.186Z,15.57
2023-02-02T01:50:05.283Z,12.57
2023-02-02T01:51:11.508Z,17.50
2023-02-02T01:52:16.786Z,12.45
2023-02-02T01:53:19.928Z,10.95
2023-02-02T01:54:30.406Z,14.38
2023-02-02T01:55:34.617Z,13.38
2023-02-02T01:56:44.772Z,11.60
2023-02-02T01:57:51.987Z,10.85
2023-02-02T01:58:54.520Z,12.98
2023-02-02T02:00:00.486Z,12.00
2023-02-02T02:01:02.849Z,12.82
2023-02-02T02:02:06.527Z,14.77
2023-02-02T02:03:13.381Z,10.02
2023-02-02T02:04:16.322Z,10.60
2023-02-02T02:05:26.324Z,12.95
2023-02-02T02:06:29.101Z,8.73
2023-02-02T02:07:31.602Z,11.82
2023-02-02T02:08:48.858Z,100.13
2023-02-02T02:09:51.221Z,100.90
2023-02-02T02:10:53.666Z,76.85
2023-02-02T02:11:56.153Z,54.03
2023-02-02T02:12:59.008Z,30.20
2023-02-02T02:14:23.754Z,22.80
2023-02-02T02:15:50.266Z,25.27
2023-02-02T02:17:13.162Z,18.83
2023-02-02T02:18:33.634Z,19.60
2023-02-02T02:20:15.937Z,20.42
2023-02-02T02:22:15.683Z,24.33
2023-02-02T02:24:22.284Z,20.42
2023-02-02T02:26:15.779Z,15.38
2023-02-02T02:27:39.116Z,17.40
2023-02-02T02:28:50.501Z,18.42
2023-02-02T02:30:17.542Z,21.75
2023-02-02T02:31:31.890Z,17.90
2023-02-02T02:32:52.174Z,12.15
2023-02-02T02:33:59.690Z,14.70
2023-02-02T02:35:27.935Z,14.38
2023-02-02T02:36:39.318Z,15.13
2023-02-02T02:37:54.154Z,13.90
2023-02-02T02:38:59.322Z,18.02
2023-02-02T02:40:20.305Z,15.40
2023-02-02T02:41:33.179Z,12.30
2023-02-02T02:42:41.034Z,13.40
2023-02-02T02:43:58.921Z,13.93
2023-02-02T02:45:03.980Z,13.15
2023-02-02T02:46:07.711Z,12.32
2023-02-02T02:47:10.940Z,12.07
2023-02-02T02:48:13.963Z,12.02
2023-02-02T02:49:17.035Z,12.48
2023-02-02T02:50:20.395Z,14.13
2023-02-02T02:51:48.848Z,9.70
2023-02-02T02:53:07.982Z,12.85
2023-02-02T02:54:15.251Z,13.02
2023-02-02T02:55:17.792Z,9.60
2023-02-02T02:56:33.553Z,10.98
2023-02-02T02:57:47.047Z,13.20
2023-02-02T02:58:59.048Z,9.20
2023-02-02T03:00:53.626Z,10.43
2023-02-02T03:02:04.997Z,10.18
2023-02-02T03:04:40.764Z,7.43
2023-02-02T03:05:53.116Z,10.88
2023-02-02T03:07:00.779Z,9.70
2023-02-02T03:08:23.239Z,9.77
2023-02-02T03:09:32.622Z,14.10
2023-02-02T03:10:36.573Z,11.93
2023-02-02T03:11:40.021Z,144.35
2023-02-02T03:12:46.956Z,68.57
2023-02-02T03:13:49.604Z,60.20
2023-02-02T03:14:51.948Z,52.33
2023-02-02T03:15:54.587Z,49.00
2023-02-02T03:16:56.860Z,39.78
2023-02-02T03:17:59.182Z,40.42
2023-02-02T03:19:01.637Z,32.17
2023-02-02T03:20:04.182Z,31.73
2023-02-02T03:21:06.840Z,30.05
2023-02-02T03:22:09.161Z,29.27
2023-02-02T03:23:11.872Z,27.65
2023-02-02T03:24:14.166Z,24.67
2023-02-02T03:25:16.678Z,23.08
2023-02-02T03:26:19.121Z,21.27
2023-02-02T03:27:21.396Z,19.05
2023-02-02T03:28:25.164Z,19.90
2023-02-02T03:29:28.209Z,18.83
2023-02-02T03:30:31.167Z,21.60
2023-02-02T03:31:33.673Z,29.17
2023-02-02T03:32:36.946Z,19.45
2023-02-02T03:33:39.431Z,15.50
2023-02-02T03:34:41.739Z,18.90
2023-02-02T03:35:44.611Z,18.30
2023-02-02T03:36:46.946Z,19.17
2023-02-02T03:37:49.357Z,19.17
2023-02-02T03:38:51.609Z,18.33
2023-02-02T03:39:53.898Z,21.08
2023-02-02T03:40:56.378Z,15.88
2023-02-02T03:41:58.795Z,19.58
2023-02-02T03:43:01.205Z,15.88
2023-02-02T03:44:03.542Z,18.20
2023-02-02T03:45:06.414Z,17.65
2023-02-02T03:46:08.771Z,15.02
2023-02-02T03:47:11.113Z,15.75
2023-02-02T03:48:13.473Z,15.60
2023-02-02T03:49:15.831Z,16.60
2023-02-02T03:50:20.760Z,22.70
2023-02-02T03:51:23.036Z,15.25
2023-02-02T03:52:25.977Z,17.67
2023-02-02T03:53:28.329Z,15.30
2023-02-02T03:54:30.971Z,15.50
2023-02-02T03:55:33.336Z,18.23
2023-02-02T03:56:35.572Z,17.15
2023-02-02T03:57:37.933Z,17.30
2023-02-02T03:58:40.476Z,15.50
2023-02-02T03:59:42.802Z,18.35
2023-02-02T04:00:45.075Z,15.80
2023-02-02T04:01:47.619Z,19.80
2023-02-02T04:02:50.186Z,14.30
2023-02-02T04:03:52.745Z,14.13
2023-02-02T04:04:55.066Z,16.85
2023-02-02T04:05:57.482Z,15.32
2023-02-02T04:06:59.875Z,68.72
2023-02-02T04:08:02.197Z,102.43
2023-02-02T04:09:04.515Z,60.10
2023-02-02T04:10:06.986Z,43.03
2023-02-02T04:11:12.199Z,34.05
2023-02-02T04:12:14.557Z,25.38
2023-02-02T04:13:16.891Z,19.88
2023-02-02T04:14:19.339Z,20.52
2023-02-02T04:15:21.580Z,13.77
2023-02-02T04:16:23.956Z,14.40
2023-02-02T04:17:26.296Z,15.27
2023-02-02T04:18:29.170Z,15.00
2023-02-02T04:19:31.491Z,14.15
2023-02-02T04:20:33.761Z,15.20
2023-02-02T04:21:36.073Z,10.00
2023-02-02T04:22:38.362Z,11.00
2023-02-02T04:23:40.630Z,11.82
2023-02-02T04:24:42.882Z,10.75
2023-02-02T04:25:51.792Z,10.82
2023-02-02T04:26:54.077Z,8.77
2023-02-02T04:27:56.395Z,10.48
2023-02-02T04:28:58.850Z,9.05
2023-02-02T04:30:01.154Z,8.45
2023-02-02T04:31:03.697Z,14.05
2023-02-02T04:32:05.979Z,8.90
2023-02-02T04:33:08.336Z,8.57
2023-02-02T04:34:10.599Z,12.20
2023-02-02T04:35:12.883Z,12.32
2023-02-02T04:36:15.208Z,7.25
2023-02-02T04:37:17.620Z,9.63
2023-02-02T04:38:20.318Z,8.90
2023-02-02T04:39:22.674Z,7.53
2023-02-02T04:40:25.169Z,5.90
2023-02-02T04:41:27.507Z,8.85
2023-02-02T04:42:32.160Z,15.32
2023-02-02T04:43:35.514Z,12.80
2023-02-02T04:44:37.789Z,13.43
2023-02-02T04:45:40.199Z,7.28
2023-02-02T04:46:43.652Z,8.68
2023-02-02T04:47:45.924Z,9.88
2023-02-02T04:48:49.794Z,5.00
2023-02-02T04:49:52.056Z,6.53
2023-02-02T04:51:01.086Z,7.68
2023-02-02T04:52:03.563Z,5.75
2023-02-02T04:53:05.921Z,7.68
2023-02-02T04:54:08.451Z,5.82
2023-02-02T04:55:10.753Z,14.55
2023-02-02T04:56:15.981Z,7.90
2023-02-02T04:57:18.482Z,7.65
2023-02-02T04:58:21.089Z,7.10
2023-02-02T04:59:23.519Z,2.80
2023-02-02T05:00:25.866Z,10.85
2023-02-02T05:01:30.214Z,6.75
2023-02-02T05:02:36.311Z,4.07
2023-02-02T05:03:38.848Z,4.95
2023-02-02T05:04:41.106Z,9.80
2023-02-02T05:05:43.342Z,7.90
2023-02-02T05:06:45.672Z,6.50
2023-02-02T05:07:48.014Z,4.25
2023-02-02T05:08:50.468Z,1.23
2023-02-02T05:09:52.747Z,7.65
2023-02-02T05:10:55.005Z,9.15
2023-02-02T05:11:57.280Z,4.18
2023-02-02T05:12:59.669Z,6.68
2023-02-02T05:14:02.018Z,6.82
2023-02-02T05:15:05.602Z,5.03
2023-02-02T05:16:08.076Z,7.30
2023-02-02T05:17:10.457Z,9.32
2023-02-02T05:18:12.680Z,4.10
2023-02-02T05:19:16.793Z,52.53
2023-02-02T05:20:19.163Z,57.38
2023-02-02T05:21:22.292Z,45.35
2023-02-02T05:22:24.594Z,45.65
2023-02-02T05:23:27.666Z,47.08
2023-02-02T05:24:30.068Z,39.67
2023-02-02T05:25:32.445Z,33.17
2023-02-02T05:26:35.030Z,29.38
2023-02-02T05:27:37.308Z,23.95
2023-02-02T05:28:41.126Z,21.20
2023-02-02T05:29:43.454Z,24.30
2023-02-02T05:30:45.843Z,20.55
2023-02-02T05:31:48.163Z,21.38
2023-02-02T05:32:50.494Z,20.67
2023-02-02T05:33:52.900Z,16.27
2023-02-02T05:34:55.392Z,13.27
2023-02-02T05:35:57.630Z,13.95
2023-02-02T05:36:59.875Z,14.07
2023-02-02T05:38:02.179Z,13.52
2023-02-02T05:39:05.568Z,13.57
2023-02-02T05:40:08.769Z,14.93
2023-02-02T05:41:11.931Z,15.70
2023-02-02T05:42:14.191Z,16.98
2023-02-02T05:43:16.477Z,14.68
2023-02-02T05:44:18.744Z,18.33
2023-02-02T05:45:21.515Z,12.65
2023-02-02T05:46:23.825Z,15.02
2023-02-02T05:47:26.099Z,16.33
2023-02-02T05:48:28.775Z,14.45
2023-02-02T05:49:31.064Z,15.95
2023-02-02T05:50:33.533Z,12.55
2023-02-02T05:51:50.108Z,16.83
2023-02-02T05:52:52.599Z,12.70
2023-02-02T05:53:54.983Z,14.35
2023-02-02T05:54:57.312Z,10.93
2023-02-02T05:55:59.721Z,12.07
2023-02-02T05:57:03.011Z,12.15
2023-02-02T05:58:05.403Z,10.40
2023-02-02T05:59:08.004Z,11.30
2023-02-02T06:00:10.889Z,14.38
2023-02-02T06:01:17.924Z,15.88
2023-02-02T06:02:20.637Z,12.75
2023-02-02T06:03:23.060Z,12.60
2023-02-02T06:04:25.456Z,11.65
2023-02-02T06:05:27.961Z,10.00
2023-02-02T06:06:30.278Z,111.30
2023-02-02T06:07:32.726Z,381.05
2023-02-02T06:08:35.703Z,295.17
2023-02-02T06:09:38.544Z,284.63
2023-02-02T06:10:43.846Z,158.18
2023-02-02T06:11:46.855Z,96.47
2023-02-02T06:12:49.119Z,63.83
2023-02-02T06:13:51.413Z,50.80
2023-02-02T06:14:53.915Z,48.83
2023-02-02T06:15:56.331Z,45.28
2023-02-02T06:16:58.740Z,42.42
2023-02-02T06:18:01.601Z,39.25
2023-02-02T06:19:04.167Z,54.70
2023-02-02T06:20:06.879Z,37.63
2023-02-02T06:21:10.227Z,46.63
2023-02-02T06:22:12.460Z,36.45
2023-02-02T06:23:14.989Z,37.33
2023-02-02T06:24:17.279Z,36.83
2023-02-02T06:25:19.630Z,37.10
2023-02-02T06:26:21.962Z,35.40
2023-02-02T06:27:24.606Z,37.28
2023-02-02T06:28:26.969Z,63.78
2023-02-02T06:29:29.217Z,48.53
2023-02-02T06:30:31.504Z,44.80
2023-02-02T06:31:34.106Z,42.42
2023-02-02T06:32:36.764Z,45.38
2023-02-02T06:33:39.100Z,40.58
2023-02-02T06:34:41.406Z,36.47
2023-02-02T06:35:43.931Z,38.40
2023-02-02T06:36:46.336Z,34.63
2023-02-02T06:37:49.109Z,31.63
2023-02-02T06:38:53.445Z,33.40
2023-02-02T06:39:55.870Z,34.47
2023-02-02T06:41:02.303Z,36.83
2023-02-02T06:42:19.318Z,35.55
2023-02-02T06:43:22.953Z,31.40
2023-02-02T06:44:25.275Z,35.53
2023-02-02T06:45:29.280Z,33.72
2023-02-02T06:46:31.654Z,31.55
2023-02-02T06:47:34.023Z,105.50
2023-02-02T06:48:36.507Z,61.72
2023-02-02T06:49:38.776Z,35.65
2023-02-02T06:50:41.281Z,53.60
2023-02-02T06:51:43.633Z,118.63
2023-02-02T06:52:51.887Z,117.88
2023-02-02T06:53:54.186Z,93.80
2023-02-02T06:54:56.539Z,81.57
2023-02-02T06:56:01.185Z,73.68
2023-02-02T06:57:03.632Z,54.78
2023-02-02T06:58:05.878Z,47.53
2023-02-02T06:59:08.207Z,44.25
2023-02-02T07:00:11.687Z,45.85
2023-02-02T07:01:14.812Z,46.28
2023-02-02T07:02:17.211Z,44.70
2023-02-02T07:03:21.426Z,44.00
2023-02-02T07:04:23.754Z,48.00
2023-02-02T07:05:30.518Z,38.67
2023-02-02T07:06:33.210Z,41.83
2023-02-02T07:07:35.525Z,46.17
2023-02-02T07:08:37.999Z,46.72
2023-02-02T07:09:40.301Z,31.38
2023-02-02T07:11:13.794Z,33.42
2023-02-02T07:12:06.662Z,24.83
2023-02-02T07:13:09.003Z,25.65
2023-02-02T07:14:11.853Z,24.98
2023-02-02T07:15:14.222Z,26.95
2023-02-02T07:16:17.941Z,29.30
2023-02-02T07:17:20.245Z,25.75
2023-02-02T07:18:22.839Z,27.35
2023-02-02T07:19:25.115Z,25.77
2023-02-02T07:20:27.598Z,28.33
2023-02-02T07:21:35.321Z,31.25
2023-02-02T07:22:41.265Z,29.00
2023-02-02T07:23:43.691Z,28.08
2023-02-02T07:24:46.059Z,30.77
2023-02-02T07:25:48.365Z,31.58
2023-02-02T07:26:50.745Z,34.53
2023-02-02T07:27:55.858Z,35.03
2023-02-02T07:28:58.316Z,32.08
2023-02-02T07:30:00.902Z,33.25
2023-02-02T07:31:19.425Z,30.08
2023-02-02T07:32:21.797Z,30.30
2023-02-02T07:33:24.276Z,32.80
2023-02-02T07:34:26.570Z,32.90
2023-02-02T07:35:28.881Z,29.45
2023-02-02T07:36:31.286Z,33.65
2023-02-02T07:37:33.612Z,30.92
2023-02-02T07:38:35.966Z,31.38
2023-02-02T07:39:40.107Z,32.22
2023-02-02T07:40:42.889Z,28.40
2023-02-02T07:41:45.272Z,28.95
2023-02-02T07:43:02.360Z,29.33
2023-02-02T07:44:05.585Z,30.50
2023-02-02T07:45:27.290Z,27.98
2023-02-02T07:46:30.660Z,28.92
2023-02-02T07:47:32.980Z,28.35
2023-02-02T07:48:36.033Z,29.10
2023-02-02T07:49:38.351Z,32.25
2023-02-02T07:50:40.657Z,34.35
2023-02-02T07:51:47.472Z,31.13
2023-02-02T07:52:50.230Z,36.63
2023-02-02T07:53:54.379Z,29.33
2023-02-02T07:55:12.604Z,35.67
2023-02-02T07:56:22.919Z,28.08
2023-02-02T07:57:25.584Z,27.17
2023-02-02T07:58:27.861Z,28.92
2023-02-02T07:59:32.312Z,29.05
2023-02-02T08:00:34.851Z,30.73
2023-02-02T08:01:37.362Z,26.55
2023-02-02T08:02:39.733Z,31.63
2023-02-02T08:03:45.098Z,26.42
2023-02-02T08:04:47.574Z,25.10
2023-02-02T08:05:50.906Z,28.17
2023-02-02T08:06:53.252Z,27.65
2023-02-02T08:07:55.590Z,28.27
2023-02-02T08:08:59.085Z,25.48
2023-02-02T08:10:01.413Z,26.00
2023-02-02T08:11:03.863Z,29.27
2023-02-02T08:12:06.246Z,27.50
2023-02-02T08:13:08.537Z,25.02
2023-02-02T08:14:13.261Z,27.52
2023-02-02T08:15:15.848Z,26.40
2023-02-02T08:16:19.123Z,27.50
2023-02-02T08:17:22.958Z,26.35
2023-02-02T08:18:25.480Z,27.73
2023-02-02T08:19:27.780Z,23.77
2023-02-02T08:20:30.163Z,27.10
2023-02-02T08:21:34.400Z,80.45
2023-02-02T08:22:36.833Z,60.95
2023-02-02T08:23:40.721Z,58.00
2023-02-02T08:24:43.080Z,55.88
2023-02-02T08:25:45.566Z,53.15
2023-02-02T08:26:47.912Z,52.85
2023-02-02T08:27:54.025Z,51.95
2023-02-02T08:29:02.133Z,40.53
2023-02-02T08:30:04.694Z,42.28
2023-02-02T08:31:12.963Z,38.17
2023-02-02T08:32:15.330Z,37.33
2023-02-02T08:33:17.645Z,33.03
2023-02-02T08:34:20.171Z,26.38
2023-02-02T08:35:22.734Z,37.63
2023-02-02T08:36:27.177Z,31.23
2023-02-02T08:37:29.547Z,33.70
2023-02-02T08:38:31.855Z,30.70
2023-02-02T08:39:34.155Z,31.23
2023-02-02T08:40:36.642Z,21.92
2023-02-02T08:41:39.451Z,31.75
2023-02-02T08:42:41.975Z,24.42
2023-02-02T08:43:44.551Z,26.90
2023-02-02T08:46:02.655Z,15.93
2023-02-02T08:46:11.853Z,17.35
2023-02-02T08:47:14.147Z,15.45
2023-02-02T08:48:17.086Z,14.32
2023-02-02T08:49:19.563Z,15.98
2023-02-02T08:50:21.990Z,19.40
2023-02-02T08:51:24.334Z,14.88
2023-02-02T08:52:26.671Z,16.67
2023-02-02T08:53:29.774Z,19.95
2023-02-02T08:54:32.111Z,18.35
2023-02-02T08:55:34.520Z,20.10
2023-02-02T08:56:36.815Z,22.63
2023-02-02T08:57:39.137Z,30.55
2023-02-02T08:58:45.647Z,25.25
2023-02-02T08:59:47.993Z,24.40
2023-02-02T09:00:50.312Z,27.58
2023-02-02T09:01:52.664Z,26.40
2023-02-02T09:02:54.930Z,30.40
2023-02-02T09:04:04.443Z,27.77
2023-02-02T09:05:07.234Z,32.75
2023-02-02T09:06:12.813Z,31.40
2023-02-02T09:07:15.084Z,26.98
2023-02-02T09:08:17.482Z,36.33
2023-02-02T09:09:19.795Z,29.20
2023-02-02T09:10:22.169Z,28.55
2023-02-02T09:11:24.586Z,27.80
2023-02-02T09:12:26.999Z,22.58
2023-02-02T09:13:29.314Z,36.35
2023-02-02T09:14:31.611Z,27.77
2023-02-02T09:15:33.872Z,25.92
2023-02-02T09:16:36.610Z,23.63
2023-02-02T09:17:38.986Z,27.13
2023-02-02T09:18:41.946Z,26.38
2023-02-02T09:19:44.267Z,26.85
2023-02-02T09:20:46.603Z,26.90
2023-02-02T09:21:51.741Z,26.35
2023-02-02T09:22:57.298Z,29.73
2023-02-02T09:23:59.592Z,23.10
2023-02-02T09:25:01.938Z,30.73
2023-02-02T09:26:16.553Z,30.92
2023-02-02T09:27:18.902Z,27.23
2023-02-02T09:28:21.239Z,22.08
2023-02-02T09:29:23.551Z,26.08
2023-02-02T09:30:25.877Z,27.15
2023-02-02T09:31:29.099Z,27.27
2023-02-02T09:32:31.971Z,25.70
2023-02-02T09:33:34.711Z,23.75
2023-02-02T09:34:37.920Z,25.98
2023-02-02T09:35:41.314Z,23.92
2023-02-02T09:36:45.043Z,23.48
2023-02-02T09:37:47.403Z,23.25
2023-02-02T09:38:51.165Z,32.27
2023-02-02T09:39:53.514Z,28.55
2023-02-02T09:40:56.001Z,24.88
2023-02-02T09:42:01.087Z,25.08
2023-02-02T09:43:04.086Z,24.10
2023-02-02T09:44:41.517Z,21.27
2023-02-02T09:46:03.192Z,22.42
2023-02-02T09:47:16.956Z,23.08
2023-02-02T09:48:36.055Z,24.83
2023-02-02T09:49:48.304Z,25.35
2023-02-02T09:50:56.157Z,31.17
2023-02-02T09:52:08.034Z,27.73
2023-02-02T09:53:36.609Z,28.10
2023-02-02T09:54:49.263Z,26.98
2023-02-02T09:55:59.843Z,27.08
2023-02-02T09:57:08.749Z,24.02
2023-02-02T09:58:24.465Z,26.02
2023-02-02T09:59:37.170Z,27.88
2023-02-02T10:01:09.793Z,28.38
2023-02-02T10:02:31.923Z,22.27
2023-02-02T10:03:42.736Z,24.85
2023-02-02T10:04:51.029Z,30.25
2023-02-02T10:06:11.475Z,23.02
2023-02-02T10:07:18.683Z,24.15
2023-02-02T10:08:34.827Z,24.20
2023-02-02T10:09:47.961Z,20.60
2023-02-02T10:10:51.516Z,24.20
2023-02-02T10:12:15.791Z,23.63
2023-02-02T10:13:25.252Z,24.42
2023-02-02T10:14:41.140Z,27.00
2023-02-02T10:15:56.480Z,24.38
2023-02-02T10:17:10.892Z,20.52
2023-02-02T10:18:41.652Z,19.90
2023-02-02T10:19:44.461Z,29.75
2023-02-02T10:20:50.735Z,22.67
2023-02-02T10:22:17.880Z,24.48
2023-02-02T10:23:38.610Z,29.92
2023-02-02T10:24:41.107Z,24.07
2023-02-02T10:25:55.903Z,29.10
2023-02-02T10:27:06.053Z,26.17
2023-02-02T10:28:18.889Z,21.75
2023-02-02T10:29:24.629Z,23.65
2023-02-02T10:30:50.542Z,22.65
2023-02-02T10:32:22.423Z,61.40
2023-02-02T10:33:38.444Z,41.17
2023-02-02T10:35:29.422Z,27.63
2023-02-02T10:37:09.003Z,27.23
2023-02-02T10:38:29.622Z,35.75
2023-02-02T10:39:35.026Z,41.80
2023-02-02T10:40:59.591Z,23.67
2023-02-02T10:42:17.209Z,31.05
2023-02-02T10:43:46.408Z,25.13
2023-02-02T10:44:58.954Z,26.15
2023-02-02T10:46:04.243Z,21.45
2023-02-02T10:47:11.853Z,22.90
2023-02-02T10:48:20.340Z,29.20
2023-02-02T10:49:33.416Z,22.95
2023-02-02T10:50:35.800Z,25.63
2023-02-02T10:51:38.288Z,21.60
2023-02-02T10:52:52.133Z,22.05
2023-02-02T10:53:57.673Z,28.05
2023-02-02T10:55:30.325Z,21.35
2023-02-02T10:56:41.885Z,25.88
2023-02-02T10:57:53.622Z,21.90
2023-02-02T10:59:07.526Z,21.25
2023-02-02T11:00:23.845Z,25.10
2023-02-02T11:01:26.523Z,25.05
2023-02-02T11:02:28.859Z,18.95
2023-02-02T11:03:34.644Z,21.38
2023-02-02T11:04:55.768Z,24.30
2023-02-02T11:06:41.150Z,28.90
2023-02-02T11:07:43.513Z,56.20
2023-02-02T11:08:56.737Z,61.85
2023-02-02T11:09:59.094Z,62.88
2023-02-02T11:11:21.652Z,51.92
2023-02-02T11:12:36.795Z,54.70
2023-02-02T11:13:47.787Z,38.17
2023-02-02T11:14:56.704Z,31.00
2023-02-02T11:16:42.098Z,35.95
2023-02-02T11:17:45.707Z,26.35
2023-02-02T11:18:48.345Z,25.35
2023-02-02T11:19:51.750Z,27.52
2023-02-02T11:20:54.333Z,28.30
2023-02-02T11:22:15.598Z,23.48
2023-02-02T11:23:20.973Z,29.67
2023-02-02T11:24:48.246Z,28.02
2023-02-02T11:26:02.488Z,26.17
2023-02-02T11:27:13.339Z,26.27
2023-02-02T11:28:24.816Z,23.70
2023-02-02T11:29:42.000Z,26.10
2023-02-02T11:30:48.270Z,22.65
2023-02-02T11:31:50.683Z,23.23
2023-02-02T11:32:53.436Z,25.63
2023-02-02T11:34:20.605Z,23.05
2023-02-02T11:35:29.653Z,26.65
2023-02-02T11:36:32.115Z,21.75
2023-02-02T11:37:39.696Z,24.67
2023-02-02T11:38:42.215Z,25.13
2023-02-02T11:39:44.580Z,20.10
2023-02-02T11:40:55.444Z,21.67
2023-02-02T11:42:21.636Z,20.23
2023-02-02T11:43:34.488Z,25.75
2023-02-02T11:44:39.950Z,18.75
2023-02-02T11:45:44.343Z,17.98
2023-02-02T11:46:49.052Z,20.73
2023-02-02T11:47:52.220Z,26.30
2023-02-02T11:49:00.007Z,19.75
2023-02-02T11:50:04.475Z,21.52
2023-02-02T11:51:19.005Z,24.33
2023-02-02T11:52:23.821Z,21.83
2023-02-02T11:53:28.397Z,21.17
2023-02-02T11:54:34.328Z,21.35
2023-02-02T11:55:36.710Z,17.05
2023-02-02T11:56:39.271Z,20.40
2023-02-02T11:58:04.550Z,18.70
2023-02-02T11:59:30.274Z,20.65
2023-02-02T12:00:32.672Z,18.35
2023-02-02T12:01:39.731Z,21.92
2023-02-02T12:02:49.522Z,25.50
2023-02-02T12:03:54.152Z,24.88
2023-02-02T12:05:19.640Z,119.82
2023-02-02T12:06:42.194Z,95.93
2023-02-02T12:07:44.880Z,75.93
2023-02-02T12:08:47.694Z,74.00
2023-02-02T12:09:50.954Z,72.05
2023-02-02T12:11:02.147Z,68.05
2023-02-02T12:12:45.642Z,55.50
2023-02-02T12:14:20.146Z,46.15
2023-02-02T12:15:31.797Z,36.20
2023-02-02T12:16:59.515Z,34.28
2023-02-02T12:18:28.255Z,31.15
2023-02-02T12:19:48.651Z,33.15
2023-02-02T12:20:57.344Z,34.38
2023-02-02T12:22:04.096Z,36.15
2023-02-02T12:23:37.023Z,33.47
2023-02-02T12:24:52.956Z,32.80
2023-02-02T12:25:59.100Z,34.70
2023-02-02T12:27:23.836Z,33.90
2023-02-02T12:28:39.114Z,37.40
2023-02-02T12:30:00.014Z,31.90
2023-02-02T12:31:14.155Z,37.08
2023-02-02T12:32:23.134Z,33.30
2023-02-02T12:34:11.795Z,27.70
2023-02-02T12:36:00.800Z,25.02
2023-02-02T12:37:17.945Z,29.67
2023-02-02T12:38:43.785Z,33.50
2023-02-02T12:40:11.506Z,28.70
2023-02-02T12:41:44.456Z,30.25
2023-02-02T12:43:18.322Z,27.35
2023-02-02T12:44:29.932Z,25.23
2023-02-02T12:46:00.494Z,28.58
2023-02-02T12:47:18.704Z,25.90
2023-02-02T12:48:29.879Z,26.60
2023-02-02T12:49:48.930Z,25.10
2023-02-02T12:51:25.079Z,27.08
2023-02-02T12:52:57.559Z,23.13
2023-02-02T12:54:33.104Z,26.02
2023-02-02T12:55:55.495Z,22.88
2023-02-02T12:57:29.459Z,27.77
2023-02-02T12:58:41.337Z,26.60
2023-02-02T13:00:04.874Z,28.75
2023-02-02T13:01:38.983Z,30.50
2023-02-02T13:03:13.340Z,22.83
2023-02-02T13:04:33.080Z,22.83
2023-02-02T13:05:58.165Z,23.52
2023-02-02T13:07:12.044Z,25.13
2023-02-02T13:08:23.071Z,23.08
2023-02-02T13:09:39.159Z,24.20
2023-02-02T13:10:45.523Z,22.05
2023-02-02T13:11:53.103Z,26.02
2023-02-02T13:13:01.332Z,21.52
2023-02-02T13:14:15.949Z,23.70
2023-02-02T13:15:24.423Z,26.08
2023-02-02T13:16:29.998Z,22.67
2023-02-02T13:17:52.384Z,21.30
2023-02-02T13:19:04.462Z,19.00
2023-02-02T13:20:28.882Z,19.80
2023-02-02T13:21:32.573Z,21.27
2023-02-02T13:22:40.903Z,20.58
2023-02-02T13:23:50.401Z,23.55
2023-02-02T13:24:56.416Z,21.20
2023-02-02T13:26:19.290Z,23.85
2023-02-02T13:27:22.976Z,23.42
2023-02-02T13:28:48.353Z,21.05
2023-02-02T13:30:20.322Z,22.67
2023-02-02T13:31:31.626Z,20.73
2023-02-02T13:33:37.395Z,20.17
2023-02-02T13:34:42.891Z,22.15
2023-02-02T13:35:55.662Z,17.98
2023-02-02T13:37:04.563Z,20.33
2023-02-02T13:38:28.771Z,22.92
2023-02-02T13:39:39.445Z,21.90
2023-02-02T13:40:43.660Z,18.40
2023-02-02T13:41:47.860Z,20.90
2023-02-02T13:43:16.204Z,18.63
2023-02-02T13:44:31.494Z,20.25
2023-02-02T13:45:52.621Z,17.17
2023-02-02T13:47:03.442Z,17.08
2023-02-02T13:48:34.053Z,20.23
2023-02-02T13:49:46.671Z,21.20
2023-02-02T13:51:19.646Z,17.90
2023-02-02T13:52:55.087Z,22.25
2023-02-02T13:54:05.955Z,20.23
2023-02-02T13:55:39.052Z,18.42
2023-02-02T13:56:51.483Z,17.33
2023-02-02T13:58:16.020Z,18.35
2023-02-02T13:59:24.860Z,18.00
2023-02-02T14:00:32.011Z,22.95
2023-02-02T14:01:34.740Z,16.55
2023-02-02T14:02:47.626Z,17.00
2023-02-02T14:03:55.309Z,21.30
2023-02-02T14:05:00.740Z,21.20
2023-02-02T14:06:09.783Z,23.67
2023-02-02T14:07:12.982Z,25.65
2023-02-02T14:08:24.213Z,32.13
2023-02-02T14:09:29.203Z,44.67
2023-02-02T14:10:33.920Z,29.73
2023-02-02T14:11:43.272Z,70.90
2023-02-02T14:13:33.229Z,54.55
2023-02-02T14:14:39.803Z,39.72
2023-02-02T14:15:46.173Z,30.10
2023-02-02T14:16:50.428Z,22.88
2023-02-02T14:17:55.072Z,16.50
2023-02-02T14:19:42.380Z,19.13
2023-02-02T14:20:49.480Z,13.13
2023-02-02T14:22:18.612Z,9.63
2023-02-02T14:23:51.132Z,10.25
2023-02-02T14:25:05.530Z,9.45
2023-02-02T14:26:10.424Z,7.72
2023-02-02T14:27:19.445Z,5.18
2023-02-02T14:28:44.136Z,7.43
2023-02-02T14:29:47.102Z,6.57
2023-02-02T14:31:28.164Z,3.72
2023-02-02T14:32:34.390Z,4.35
2023-02-02T14:33:47.320Z,14.25
2023-02-02T14:34:55.280Z,6.00
2023-02-02T14:36:04.551Z,6.32
2023-02-02T14:37:25.185Z,8.82
2023-02-02T14:38:52.840Z,14.50
2023-02-02T14:40:06.789Z,11.77